createdAt,value
2019-02-06T00:02:56.477Z,102409.92
2019-02-06T00:06:00.746Z,102424.30
2019-02-06T00:09:11.254Z,102412.94
2019-02-06T00:12:15.172Z,102410.05
2019-02-06T00:15:19.127Z,102410.57
2019-02-06T00:18:23.048Z,102401.33
2019-02-06T00:21:26.869Z,102400.88
2019-02-06T00:24:31.070Z,102385.91
2019-02-06T00:27:34.960Z,102391.03
2019-02-06T00:30:38.849Z,102382.08
2019-02-06T00:33:43.015Z,102395.59
2019-02-06T00:36:46.821Z,102387.89
2019-02-06T00:39:50.634Z,102384.25
2019-02-06T00:42:54.730Z,102386.28
2019-02-06T00:45:58.618Z,102385.77
2019-02-06T00:49:02.437Z,102384.30
2019-02-06T00:52:06.412Z,102381.50
2019-02-06T00:55:10.975Z,102381.16
2019-02-06T00:58:14.893Z,102380.56
2019-02-06T01:01:19.138Z,102375.97
2019-02-06T01:04:23.129Z,102369.45
2019-02-06T01:07:26.931Z,102367.52
2019-02-06T01:10:31.018Z,102360.14
2019-02-06T01:13:34.884Z,102359.14
2019-02-06T01:16:38.810Z,102357.39
2019-02-06T01:19:43.443Z,102354.47
2019-02-06T01:22:47.403Z,102351.82
2019-02-06T01:25:51.275Z,102350.43
2019-02-06T01:28:55.402Z,102345.83
2019-02-06T01:31:59.347Z,102341.14
2019-02-06T01:35:03.224Z,102346.91
2019-02-06T01:38:07.464Z,102354.06
2019-02-06T01:41:11.457Z,102345.42
2019-02-06T01:44:15.262Z,102350.67
2019-02-06T01:47:19.079Z,102350.61
2019-02-06T01:50:23.013Z,102340.89
2019-02-06T01:53:26.983Z,102341.28
2019-02-06T01:56:30.977Z,102337.34
2019-02-06T01:59:34.943Z,102333.85
2019-02-06T02:02:38.820Z,102325.53
2019-02-06T02:05:42.618Z,102329.87
2019-02-06T02:08:57.061Z,102325.80
2019-02-06T02:12:00.998Z,102317.00
2019-02-06T02:15:07.086Z,102316.84
2019-02-06T02:18:10.958Z,102313.67
2019-02-06T02:21:14.878Z,102312.28
2019-02-06T02:24:18.748Z,102309.52
2019-02-06T02:27:22.580Z,102307.23
2019-02-06T02:30:34.594Z,102308.78
2019-02-06T02:33:38.492Z,102310.31
2019-02-06T02:36:42.362Z,102306.38
2019-02-06T02:39:46.368Z,102299.22
2019-02-06T02:42:50.284Z,102296.55
2019-02-06T02:45:54.358Z,102286.06
2019-02-06T02:48:58.282Z,102293.45
2019-02-06T02:52:02.068Z,102292.73
2019-02-06T02:55:06.755Z,102283.83
2019-02-06T02:58:10.810Z,102273.35
2019-02-06T03:01:35.861Z,102265.11
2019-02-06T03:04:43.940Z,102267.92
2019-02-06T03:07:47.837Z,102265.48
2019-02-06T03:10:51.653Z,102256.05
2019-02-06T03:13:55.546Z,102246.30
2019-02-06T03:17:03.057Z,102239.41
2019-02-06T03:20:06.245Z,102237.58
2019-02-06T03:23:10.219Z,102228.88
2019-02-06T03:26:14.160Z,102219.27
2019-02-06T03:29:18.077Z,102219.27
2019-02-06T03:32:21.891Z,102219.27
2019-02-06T03:35:25.702Z,102213.95
2019-02-06T03:38:29.513Z,102201.88
2019-02-06T03:41:33.331Z,102201.37
2019-02-06T03:44:37.228Z,102197.11
2019-02-06T03:47:41.211Z,102190.09
2019-02-06T03:50:45.093Z,102187.95
2019-02-06T03:53:48.981Z,102188.61
2019-02-06T03:56:52.790Z,102177.38
2019-02-06T03:59:56.613Z,102170.75
2019-02-06T04:03:00.502Z,102157.19
2019-02-06T04:06:04.504Z,102153.44
2019-02-06T04:09:09.318Z,102158.16
2019-02-06T04:12:13.215Z,102134.14
2019-02-06T04:15:17.107Z,102136.50
2019-02-06T04:18:20.916Z,102133.03
2019-02-06T04:21:24.789Z,102121.36
2019-02-06T04:24:28.648Z,102123.12
2019-02-06T04:27:32.454Z,102121.82
2019-02-06T04:30:36.479Z,102122.86
2019-02-06T04:33:40.275Z,102126.77
2019-02-06T04:36:44.136Z,102104.05
2019-02-06T04:39:48.005Z,102099.80
2019-02-06T04:42:51.815Z,102084.52
2019-02-06T04:45:55.652Z,102078.95
2019-02-06T04:48:59.526Z,102074.48
2019-02-06T04:52:03.358Z,102074.09
2019-02-06T04:55:07.858Z,102073.56
2019-02-06T04:58:11.758Z,102061.77
2019-02-06T05:01:15.578Z,102063.09
2019-02-06T05:04:19.389Z,102065.43
2019-02-06T05:07:23.303Z,102056.20
2019-02-06T05:10:27.161Z,102057.30
2019-02-06T05:13:30.976Z,102056.33
2019-02-06T05:16:34.847Z,102053.42
2019-02-06T05:19:38.667Z,102045.09
2019-02-06T05:22:42.460Z,102048.11
2019-02-06T05:25:46.342Z,102042.47
2019-02-06T05:28:50.252Z,102032.05
2019-02-06T05:31:54.173Z,102034.27
2019-02-06T05:34:57.971Z,102028.57
2019-02-06T05:38:01.958Z,102022.52
2019-02-06T05:41:05.961Z,102020.31
2019-02-06T05:44:09.844Z,102012.09
2019-02-06T05:47:13.667Z,101998.08
2019-02-06T05:50:17.816Z,101996.37
2019-02-06T05:53:21.699Z,101981.50
2019-02-06T05:56:25.575Z,101980.58
2019-02-06T05:59:29.854Z,101967.47
2019-02-06T06:02:33.819Z,101958.90
2019-02-06T06:05:37.730Z,101953.20
2019-02-06T06:08:41.916Z,101953.81
2019-02-06T06:11:45.883Z,101945.33
2019-02-06T06:14:49.701Z,101945.05
2019-02-06T06:17:53.524Z,101931.77
2019-02-06T06:20:57.429Z,101928.34
2019-02-06T06:24:01.355Z,101939.34
2019-02-06T06:27:05.325Z,101930.67
2019-02-06T06:30:11.495Z,101929.75
2019-02-06T06:33:15.292Z,101934.66
2019-02-06T06:36:19.092Z,101928.45
2019-02-06T06:39:22.904Z,101931.59
2019-02-06T06:42:26.725Z,101917.91
2019-02-06T06:45:30.618Z,101913.62
2019-02-06T06:48:34.791Z,101907.58
2019-02-06T06:51:38.655Z,101901.81
2019-02-06T06:54:42.460Z,101905.29
2019-02-06T06:57:46.292Z,101913.11
2019-02-06T07:00:50.210Z,101905.70
2019-02-06T07:03:54.021Z,101895.27
2019-02-06T07:06:57.913Z,101894.41
2019-02-06T07:10:01.786Z,101899.70
2019-02-06T07:13:05.757Z,101888.77
2019-02-06T07:16:09.703Z,101882.25
2019-02-06T07:19:13.505Z,101876.19
2019-02-06T07:22:17.463Z,101869.95
2019-02-06T07:25:21.417Z,101872.66
2019-02-06T07:28:25.242Z,101874.42
2019-02-06T07:31:29.063Z,101871.84
2019-02-06T07:34:32.867Z,101875.73
2019-02-06T07:37:36.843Z,101860.81
2019-02-06T07:40:40.632Z,101868.67
2019-02-06T07:43:44.529Z,101865.60
2019-02-06T07:46:48.434Z,101869.19
2019-02-06T07:49:52.322Z,101863.92
2019-02-06T07:52:56.313Z,101866.47
2019-02-06T07:56:00.208Z,101865.16
2019-02-06T07:59:04.139Z,101866.05
2019-02-06T08:02:08.119Z,101862.22
2019-02-06T08:05:14.070Z,101871.00
2019-02-06T08:08:17.975Z,101881.43
2019-02-06T08:11:21.765Z,101887.84
2019-02-06T08:14:25.686Z,101883.52
2019-02-06T08:17:29.557Z,101880.89
2019-02-06T08:20:33.450Z,101887.89
2019-02-06T08:23:37.262Z,101884.05
2019-02-06T08:26:41.103Z,101885.17
2019-02-06T08:29:44.904Z,101885.58
2019-02-06T08:32:48.836Z,101889.11
2019-02-06T08:35:52.726Z,101883.47
2019-02-06T08:38:56.553Z,101885.23
2019-02-06T08:42:00.475Z,101880.02
2019-02-06T08:45:05.120Z,101881.30
2019-02-06T08:48:09.034Z,101879.62
2019-02-06T08:51:12.836Z,101877.35
2019-02-06T08:54:16.673Z,101871.25
2019-02-06T08:57:20.559Z,101876.45
2019-02-06T09:00:27.217Z,101876.09
2019-02-06T09:03:31.118Z,101871.84
2019-02-06T09:06:35.029Z,101864.78
2019-02-06T09:09:38.834Z,101854.80
2019-02-06T09:12:42.734Z,101852.62
2019-02-06T09:15:46.584Z,101841.28
2019-02-06T09:18:50.493Z,101849.15
2019-02-06T09:21:54.363Z,101840.37
2019-02-06T09:24:58.128Z,101840.88
2019-02-06T09:28:02.022Z,101845.77
2019-02-06T09:31:05.983Z,101837.31
2019-02-06T09:34:09.964Z,101833.91
2019-02-06T09:37:13.850Z,101836.13
2019-02-06T09:40:19.486Z,101848.38
2019-02-06T09:43:23.327Z,101841.83
2019-02-06T09:46:27.127Z,101847.16
2019-02-06T09:49:30.945Z,101851.91
2019-02-06T09:52:34.831Z,101844.55
2019-02-06T09:55:38.908Z,101835.80
2019-02-06T09:58:42.787Z,101831.46
2019-02-06T10:01:46.795Z,101833.73
2019-02-06T10:04:50.867Z,101833.73
2019-02-06T10:07:54.845Z,101831.52
2019-02-06T10:10:58.680Z,101834.69
2019-02-06T10:14:02.643Z,101828.48
2019-02-06T10:17:06.562Z,101829.56
2019-02-06T10:20:13.288Z,101826.76
2019-02-06T10:23:17.241Z,101818.98
2019-02-06T10:26:21.027Z,101819.87
2019-02-06T10:29:24.864Z,101818.61
2019-02-06T10:32:28.674Z,101815.12
2019-02-06T10:35:32.580Z,101817.80
2019-02-06T10:38:36.478Z,101815.58
2019-02-06T10:41:40.442Z,101821.28
2019-02-06T10:44:44.424Z,101811.23
2019-02-06T10:47:48.622Z,101808.70
2019-02-06T10:50:53.834Z,101806.84
2019-02-06T10:53:57.705Z,101798.56
2019-02-06T10:57:01.520Z,101794.58
2019-02-06T11:00:12.305Z,101794.67
2019-02-06T11:03:16.208Z,101800.41
2019-02-06T11:06:20.106Z,101789.87
2019-02-06T11:09:23.991Z,101784.62
2019-02-06T11:12:27.812Z,101783.88
2019-02-06T11:15:31.900Z,101772.22
2019-02-06T11:18:35.859Z,101774.48
2019-02-06T11:21:39.824Z,101771.81
2019-02-06T11:24:43.630Z,101772.11
2019-02-06T11:27:47.564Z,101770.01
2019-02-06T11:30:51.542Z,101765.32
2019-02-06T11:33:55.432Z,101762.80
2019-02-06T11:36:59.327Z,101761.01
2019-02-06T11:40:03.226Z,101763.67
2019-02-06T11:43:07.364Z,101751.48
2019-02-06T11:46:11.227Z,101751.92
2019-02-06T11:49:16.153Z,101741.42
2019-02-06T11:52:19.980Z,101741.04
2019-02-06T11:55:24.699Z,101737.58
2019-02-06T11:58:28.645Z,101738.55
2019-02-06T12:01:36.460Z,101727.11
2019-02-06T12:04:40.343Z,101728.01
2019-02-06T12:07:44.312Z,101721.92
2019-02-06T12:10:48.479Z,101718.84
2019-02-06T12:13:52.423Z,101714.55
2019-02-06T12:16:56.322Z,101720.16
2019-02-06T12:20:00.184Z,101717.56
2019-02-06T12:23:04.405Z,101717.63
2019-02-06T12:26:08.388Z,101721.13
2019-02-06T12:29:12.281Z,101713.27
2019-02-06T12:32:16.185Z,101715.48
2019-02-06T12:35:20.036Z,101714.55
2019-02-06T12:38:23.922Z,101714.14
2019-02-06T12:41:27.758Z,101711.55
2019-02-06T12:44:32.630Z,101711.48
2019-02-06T12:47:36.455Z,101700.58
2019-02-06T12:50:40.398Z,101706.32
2019-02-06T12:53:44.345Z,101709.36
2019-02-06T12:56:48.218Z,101700.52
2019-02-06T12:59:52.024Z,101702.28
2019-02-06T13:02:59.651Z,101700.45
2019-02-06T13:06:01.559Z,101695.69
2019-02-06T13:09:08.759Z,101694.31
2019-02-06T13:12:12.573Z,101705.39
2019-02-06T13:15:16.718Z,101690.97
2019-02-06T13:18:20.567Z,101688.38
2019-02-06T13:21:24.364Z,101692.34
2019-02-06T13:24:28.252Z,101691.15
2019-02-06T13:27:32.055Z,101689.78
2019-02-06T13:30:36.633Z,101690.77
2019-02-06T13:33:40.502Z,101687.98
2019-02-06T13:36:44.331Z,101679.27
2019-02-06T13:39:48.208Z,101672.63
2019-02-06T13:42:52.228Z,101668.75
2019-02-06T13:45:56.017Z,101673.59
2019-02-06T13:48:59.905Z,101673.02
2019-02-06T13:52:03.968Z,101671.30
2019-02-06T13:55:09.627Z,101667.80
2019-02-06T13:58:20.146Z,101666.12
2019-02-06T14:01:25.811Z,101659.61
2019-02-06T14:04:24.717Z,101655.67
2019-02-06T14:07:28.682Z,101652.59
2019-02-06T14:10:32.719Z,101646.94
2019-02-06T14:13:36.986Z,101645.11
2019-02-06T14:16:40.781Z,101643.81
2019-02-06T14:19:44.734Z,101638.61
2019-02-06T14:22:55.517Z,101639.53
2019-02-06T14:26:20.661Z,101639.92
2019-02-06T14:29:49.051Z,101642.13
2019-02-06T14:33:55.586Z,101640.80
2019-02-06T14:37:27.771Z,101630.23
2019-02-06T14:41:08.304Z,101629.83
2019-02-06T14:44:39.746Z,101632.49
2019-02-06T14:48:10.685Z,101629.83
2019-02-06T14:52:00.125Z,101635.96
2019-02-06T14:55:17.659Z,101628.52
2019-02-06T14:59:06.211Z,101621.98
2019-02-06T15:02:53.255Z,101619.83
2019-02-06T15:06:09.157Z,101615.45
2019-02-06T15:09:55.781Z,101621.20
2019-02-06T15:13:34.560Z,101619.03
2019-02-06T15:17:21.533Z,101620.69
2019-02-06T15:21:18.218Z,101611.95
2019-02-06T15:24:40.156Z,101611.54
2019-02-06T15:28:25.635Z,101604.94
2019-02-06T15:32:02.812Z,101609.83
2019-02-06T15:35:32.630Z,101604.98
2019-02-06T15:38:46.893Z,101609.72
2019-02-06T15:42:31.128Z,101610.36
2019-02-06T15:45:58.012Z,101612.99
2019-02-06T15:49:10.956Z,101622.64
2019-02-06T15:53:05.307Z,101611.28
2019-02-06T15:56:56.140Z,101607.36
2019-02-06T16:00:19.188Z,101610.55
2019-02-06T16:04:15.243Z,101610.90
2019-02-06T16:07:50.478Z,101611.33
2019-02-06T16:11:41.655Z,101613.64
2019-02-06T16:15:07.616Z,101615.75
2019-02-06T16:18:35.230Z,101617.49
2019-02-06T16:22:44.679Z,101624.62
2019-02-06T16:25:59.620Z,101621.94
2019-02-06T16:29:38.914Z,101625.83
2019-02-06T16:33:16.959Z,101628.09
2019-02-06T16:36:43.523Z,101627.95
2019-02-06T16:40:14.281Z,101623.61
2019-02-06T16:43:38.004Z,101628.95
2019-02-06T16:47:32.466Z,101624.58
2019-02-06T16:50:57.110Z,101620.74
2019-02-06T16:54:38.053Z,101618.05
2019-02-06T16:58:23.257Z,101621.94
2019-02-06T17:01:43.891Z,101624.94
2019-02-06T17:05:31.262Z,101626.34
2019-02-06T17:09:15.602Z,101634.32
2019-02-06T17:12:31.974Z,101630.44
2019-02-06T17:16:08.853Z,101619.87
2019-02-06T17:19:56.749Z,101620.34
2019-02-06T17:23:29.970Z,101618.59
2019-02-06T17:26:53.563Z,101614.66
2019-02-06T17:30:29.578Z,101611.58
2019-02-06T17:34:00.107Z,101620.15
2019-02-06T17:37:35.106Z,101620.95
2019-02-06T17:41:00.186Z,101606.94
2019-02-06T17:44:33.828Z,101604.75
2019-02-06T17:48:10.065Z,101612.17
2019-02-06T17:52:04.626Z,101603.41
2019-02-06T17:55:19.405Z,101603.88
2019-02-06T17:58:23.349Z,101605.58
2019-02-06T18:01:37.032Z,101615.22
2019-02-06T18:04:43.651Z,101624.86
2019-02-06T18:07:47.531Z,101612.61
2019-02-06T18:10:51.432Z,101628.00
2019-02-06T18:13:55.330Z,101628.84
2019-02-06T18:16:59.884Z,101634.97
2019-02-06T18:20:05.242Z,101630.55
2019-02-06T18:23:09.120Z,101624.05
2019-02-06T18:26:13.085Z,101626.27
2019-02-06T18:29:17.038Z,101627.10
2019-02-06T18:32:21.012Z,101632.32
2019-02-06T18:35:24.897Z,101635.82
2019-02-06T18:38:28.712Z,101637.18
2019-02-06T18:41:32.598Z,101629.69
2019-02-06T18:44:36.434Z,101628.81
2019-02-06T18:47:40.319Z,101624.92
2019-02-06T18:50:44.313Z,101613.63
2019-02-06T18:53:48.688Z,101616.27
2019-02-06T18:56:52.606Z,101615.31
2019-02-06T18:59:56.499Z,101617.52
2019-02-06T19:03:00.570Z,101610.55
2019-02-06T19:06:04.593Z,101611.43
2019-02-06T19:09:13.841Z,101614.15
2019-02-06T19:12:17.913Z,101603.58
2019-02-06T19:15:21.820Z,101599.13
2019-02-06T19:18:26.083Z,101588.67
2019-02-06T19:21:29.983Z,101582.93
2019-02-06T19:24:33.787Z,101580.67
2019-02-06T19:27:38.036Z,101589.02
2019-02-06T19:30:41.882Z,101596.88
2019-02-06T19:33:45.704Z,101574.09
2019-02-06T19:36:49.583Z,101574.53
2019-02-06T19:39:53.525Z,101567.09
2019-02-06T19:43:00.413Z,101561.38
2019-02-06T19:46:03.077Z,101554.74
2019-02-06T19:49:06.894Z,101553.02
2019-02-06T19:52:10.826Z,101564.91
2019-02-06T19:55:14.817Z,101564.01
2019-02-06T19:58:18.637Z,101556.53
2019-02-06T20:01:22.994Z,101551.31
2019-02-06T20:04:26.838Z,101554.72
2019-02-06T20:07:30.747Z,101556.60
2019-02-06T20:10:37.210Z,101558.75
2019-02-06T20:13:41.039Z,101547.75
2019-02-06T20:16:44.850Z,101545.52
2019-02-06T20:19:48.739Z,101527.57
2019-02-06T20:22:52.675Z,101534.14
2019-02-06T20:25:59.877Z,101535.84
2019-02-06T20:29:04.346Z,101547.32
2019-02-06T20:32:08.774Z,101555.61
2019-02-06T20:35:13.889Z,101560.50
2019-02-06T20:38:17.896Z,101552.19
2019-02-06T20:41:21.940Z,101546.45
2019-02-06T20:44:26.041Z,101531.99
2019-02-06T20:47:29.818Z,101520.95
2019-02-06T20:50:34.551Z,101506.53
2019-02-06T20:53:38.777Z,101493.34
2019-02-06T20:56:42.949Z,101492.45
2019-02-06T20:59:47.107Z,101487.70
2019-02-06T21:02:51.496Z,101504.79
2019-02-06T21:05:55.333Z,101506.94
2019-02-06T21:08:59.218Z,101487.64
2019-02-06T21:12:03.572Z,101489.41
2019-02-06T21:15:07.677Z,101481.11
2019-02-06T21:18:11.508Z,101481.06
2019-02-06T21:21:15.876Z,101495.98
2019-02-06T21:24:20.014Z,101490.29
2019-02-06T21:27:23.902Z,101485.06
2019-02-06T21:30:31.534Z,101492.98
2019-02-06T21:33:35.408Z,101496.45
2019-02-06T21:36:39.247Z,101493.83
2019-02-06T21:39:43.750Z,101497.79
2019-02-06T21:42:47.929Z,101492.98
2019-02-06T21:45:52.039Z,101506.56
2019-02-06T21:48:56.342Z,101496.55
2019-02-06T21:52:00.152Z,101476.77
2019-02-06T21:55:04.663Z,101482.48
2019-02-06T21:58:09.116Z,101473.31
2019-02-06T22:01:12.933Z,101470.67
2019-02-06T22:04:19.138Z,101458.80
2019-02-06T22:07:22.954Z,101468.45
2019-02-06T22:10:29.403Z,101472.82
2019-02-06T22:13:33.213Z,101462.73
2019-02-06T22:16:37.045Z,101458.77
2019-02-06T22:19:41.093Z,101468.01
2019-02-06T22:22:45.087Z,101460.98
2019-02-06T22:25:48.904Z,101463.61
2019-02-06T22:28:53.524Z,101461.45
2019-02-06T22:31:57.344Z,101445.62
2019-02-06T22:35:01.173Z,101438.66
2019-02-06T22:38:05.332Z,101445.23
2019-02-06T22:41:10.234Z,101435.55
2019-02-06T22:44:14.133Z,101442.14
2019-02-06T22:47:18.998Z,101440.42
2019-02-06T22:50:24.534Z,101442.13
2019-02-06T22:53:28.443Z,101434.69
2019-02-06T22:56:32.362Z,101441.71
2019-02-06T22:59:36.243Z,101431.20
2019-02-06T23:02:40.060Z,101423.76
2019-02-06T23:05:43.894Z,101429.44
2019-02-06T23:08:47.848Z,101422.89
2019-02-06T23:11:51.770Z,101419.36
2019-02-06T23:14:55.584Z,101419.41
2019-02-06T23:17:59.496Z,101409.73
2019-02-06T23:21:03.461Z,101398.33
2019-02-06T23:24:07.455Z,101389.99
2019-02-06T23:27:11.374Z,101383.88
2019-02-06T23:30:15.346Z,101389.56
2019-02-06T23:33:19.498Z,101378.19
2019-02-06T23:36:23.403Z,101369.84
2019-02-06T23:39:27.309Z,101362.83
2019-02-06T23:42:31.499Z,101355.83
2019-02-06T23:45:35.487Z,101343.11
2019-02-06T23:48:39.437Z,101333.03
2019-02-06T23:51:43.633Z,101332.59
2019-02-06T23:54:47.482Z,101334.34
2019-02-06T23:57:51.360Z,101332.59
